createdAt,value
2023-03-18T00:02:23.300Z,39.29
2023-03-18T00:04:54.180Z,39.11
2023-03-18T00:07:24.764Z,38.84
2023-03-18T00:09:55.728Z,38.97
2023-03-18T00:12:26.301Z,38.88
2023-03-18T00:14:59.757Z,38.73
2023-03-18T00:17:30.120Z,38.94
2023-03-18T00:20:05.851Z,38.98
2023-03-18T00:22:36.667Z,38.83
2023-03-18T00:25:09.884Z,38.88
2023-03-18T00:27:41.297Z,38.72
2023-03-18T00:30:16.106Z,38.90
2023-03-18T00:32:46.692Z,38.92
2023-03-18T00:35:19.620Z,38.95
2023-03-18T00:37:49.961Z,39.03
2023-03-18T00:40:27.565Z,38.78
2023-03-18T00:43:08.135Z,39.07
2023-03-18T00:45:44.976Z,38.79
2023-03-18T00:48:15.306Z,38.87
2023-03-18T00:50:46.956Z,39.23
2023-03-18T00:53:17.939Z,38.89
2023-03-18T00:55:48.490Z,38.68
2023-03-18T00:58:19.037Z,38.52
2023-03-18T01:00:52.740Z,38.52
2023-03-18T01:03:25.884Z,38.27
2023-03-18T01:05:56.512Z,38.40
2023-03-18T01:08:27.473Z,38.56
2023-03-18T01:10:57.866Z,38.78
2023-03-18T01:13:28.623Z,38.92
2023-03-18T01:16:01.880Z,38.71
2023-03-18T01:18:34.614Z,38.75
2023-03-18T01:21:05.586Z,38.87
2023-03-18T01:23:44.016Z,38.82
2023-03-18T01:26:14.551Z,39.03
2023-03-18T01:28:47.676Z,38.98
2023-03-18T01:31:20.870Z,39.02
2023-03-18T01:33:52.032Z,39.03
2023-03-18T01:36:22.822Z,38.97
2023-03-18T01:39:06.467Z,38.92
2023-03-18T01:41:38.670Z,39.00
2023-03-18T01:44:19.335Z,39.08
2023-03-18T01:46:55.201Z,38.99
2023-03-18T01:49:35.192Z,38.96
2023-03-18T01:52:13.069Z,38.87
2023-03-18T01:54:49.587Z,38.89
2023-03-18T01:57:20.698Z,38.96
2023-03-18T01:59:52.200Z,38.68
2023-03-18T02:02:25.479Z,38.81
2023-03-18T02:05:00.802Z,38.65
2023-03-18T02:07:35.499Z,38.24
2023-03-18T02:10:13.908Z,38.42
2023-03-18T02:12:48.560Z,38.18
2023-03-18T02:15:31.427Z,38.25
2023-03-18T02:18:10.425Z,38.12
2023-03-18T02:20:55.784Z,38.41
2023-03-18T02:23:36.838Z,38.70
2023-03-18T02:26:13.948Z,38.50
2023-03-18T02:28:48.307Z,38.40
2023-03-18T02:31:20.610Z,38.15
2023-03-18T02:33:51.214Z,38.37
2023-03-18T02:36:25.599Z,38.52
2023-03-18T02:38:57.562Z,38.94
2023-03-18T02:41:31.875Z,38.69
2023-03-18T02:44:05.703Z,38.18
2023-03-18T02:46:51.943Z,38.15
2023-03-18T02:49:23.850Z,38.28
2023-03-18T02:51:54.765Z,38.21
2023-03-18T02:54:27.972Z,38.32
2023-03-18T02:57:02.056Z,38.27
2023-03-18T02:59:35.456Z,38.60
2023-03-18T03:02:06.631Z,38.87
2023-03-18T03:04:37.157Z,38.74
2023-03-18T03:07:08.172Z,38.56
2023-03-18T03:09:42.873Z,38.59
2023-03-18T03:12:13.808Z,38.84
2023-03-18T03:14:51.727Z,38.82
2023-03-18T03:17:22.903Z,39.11
2023-03-18T03:19:54.160Z,39.09
2023-03-18T03:22:24.970Z,39.23
2023-03-18T03:24:55.419Z,39.20
2023-03-18T03:27:26.256Z,39.60
2023-03-18T03:30:00.415Z,39.45
2023-03-18T03:32:30.871Z,39.54
2023-03-18T03:35:01.363Z,39.54
2023-03-18T03:37:32.097Z,39.64
2023-03-18T03:40:02.844Z,39.71
2023-03-18T03:42:35.317Z,39.70
2023-03-18T03:45:10.446Z,39.78
2023-03-18T03:47:40.978Z,39.82
2023-03-18T03:50:14.353Z,40.10
2023-03-18T03:52:45.267Z,40.09
2023-03-18T03:55:18.529Z,39.95
2023-03-18T03:57:49.801Z,40.01
2023-03-18T04:00:27.681Z,40.04
2023-03-18T04:02:58.384Z,40.00
2023-03-18T04:05:31.638Z,40.24
2023-03-18T04:08:03.675Z,40.69
2023-03-18T04:10:39.599Z,40.60
2023-03-18T04:13:13.543Z,40.70
2023-03-18T04:15:48.097Z,40.97
2023-03-18T04:18:22.212Z,41.16
2023-03-18T04:20:52.642Z,41.26
2023-03-18T04:23:33.766Z,41.29
2023-03-18T04:26:05.476Z,41.49
2023-03-18T04:28:37.102Z,41.44
2023-03-18T04:31:12.704Z,41.49
2023-03-18T04:33:43.768Z,41.69
2023-03-18T04:36:14.335Z,41.73
2023-03-18T04:38:46.451Z,41.81
2023-03-18T04:41:17.181Z,41.73
2023-03-18T04:43:47.778Z,41.66
2023-03-18T04:46:21.225Z,41.73
2023-03-18T04:48:54.963Z,41.86
2023-03-18T04:51:25.463Z,42.02
2023-03-18T04:53:56.601Z,42.20
2023-03-18T04:56:31.454Z,42.08
2023-03-18T04:59:02.604Z,42.29
2023-03-18T05:01:39.217Z,42.25
2023-03-18T05:04:10.444Z,42.13
2023-03-18T05:06:48.865Z,42.53
2023-03-18T05:09:19.604Z,42.83
2023-03-18T05:11:50.238Z,42.88
2023-03-18T05:14:33.055Z,42.97
2023-03-18T05:17:07.340Z,43.30
2023-03-18T05:19:41.170Z,42.97
2023-03-18T05:22:21.287Z,43.15
2023-03-18T05:24:56.888Z,43.04
2023-03-18T05:27:31.934Z,43.14
2023-03-18T05:30:09.413Z,43.28
2023-03-18T05:32:55.988Z,43.02
2023-03-18T05:35:40.371Z,44.04
2023-03-18T05:38:10.859Z,43.57
2023-03-18T05:40:41.373Z,43.48
2023-03-18T05:43:21.923Z,43.44
2023-03-18T05:45:56.054Z,43.34
2023-03-18T05:48:39.331Z,43.44
2023-03-18T05:51:10.348Z,43.32
2023-03-18T05:53:42.458Z,43.23
2023-03-18T05:56:30.871Z,43.14
2023-03-18T05:59:04.036Z,43.36
2023-03-18T06:01:57.142Z,43.03
2023-03-18T06:04:31.229Z,43.01
2023-03-18T06:07:03.266Z,42.84
2023-03-18T06:09:34.947Z,43.04
2023-03-18T06:12:06.439Z,43.18
2023-03-18T06:14:37.410Z,43.01
2023-03-18T06:17:09.619Z,42.98
2023-03-18T06:19:42.862Z,42.88
2023-03-18T06:22:13.486Z,42.72
2023-03-18T06:24:43.965Z,42.67
2023-03-18T06:27:14.741Z,42.85
2023-03-18T06:29:47.702Z,42.70
2023-03-18T06:32:21.847Z,44.00
2023-03-18T06:34:55.695Z,43.62
2023-03-18T06:37:26.873Z,43.69
2023-03-18T06:39:57.604Z,44.32
2023-03-18T06:42:28.158Z,43.28
2023-03-18T06:45:07.416Z,43.09
2023-03-18T06:47:58.015Z,43.42
2023-03-18T06:50:32.153Z,42.68
2023-03-18T06:53:05.624Z,41.56
2023-03-18T06:55:38.068Z,41.00
2023-03-18T06:58:09.290Z,40.57
2023-03-18T07:00:56.859Z,40.37
2023-03-18T07:03:30.681Z,40.44
2023-03-18T07:06:04.526Z,40.29
2023-03-18T07:08:36.101Z,40.10
2023-03-18T07:11:07.341Z,39.72
2023-03-18T07:13:40.926Z,39.09
2023-03-18T07:16:19.090Z,38.72
2023-03-18T07:18:49.597Z,38.52
2023-03-18T07:21:22.667Z,38.39
2023-03-18T07:23:55.569Z,38.28
2023-03-18T07:26:28.376Z,38.17
2023-03-18T07:28:58.765Z,37.65
2023-03-18T07:31:30.206Z,37.84
2023-03-18T07:34:00.852Z,37.35
2023-03-18T07:36:33.761Z,37.58
2023-03-18T07:39:04.090Z,37.15
2023-03-18T07:41:37.284Z,37.26
2023-03-18T07:44:08.935Z,37.06
2023-03-18T07:46:39.632Z,37.09
2023-03-18T07:49:10.002Z,36.90
2023-03-18T07:51:43.576Z,36.11
2023-03-18T07:54:14.416Z,35.23
2023-03-18T07:56:44.787Z,33.89
2023-03-18T07:59:18.197Z,33.31
2023-03-18T08:01:49.152Z,32.84
2023-03-18T08:04:19.971Z,32.44
2023-03-18T08:06:53.514Z,30.75
2023-03-18T08:09:24.310Z,30.30
2023-03-18T08:11:54.337Z,28.79
2023-03-18T08:14:24.869Z,28.42
2023-03-18T08:16:55.357Z,28.35
2023-03-18T08:19:26.913Z,28.58
2023-03-18T08:22:00.161Z,28.36
2023-03-18T08:24:30.818Z,29.02
2023-03-18T08:27:01.291Z,29.21
2023-03-18T08:29:32.610Z,29.13
2023-03-18T08:32:04.039Z,28.94
2023-03-18T08:34:34.468Z,28.58
2023-03-18T08:37:08.493Z,28.02
2023-03-18T08:39:39.778Z,27.85
2023-03-18T08:42:10.663Z,27.89
2023-03-18T08:44:41.812Z,26.61
2023-03-18T08:47:12.302Z,26.80
2023-03-18T08:49:42.852Z,25.98
2023-03-18T08:52:16.988Z,25.03
2023-03-18T08:54:47.940Z,24.46
2023-03-18T08:57:18.847Z,24.94
2023-03-18T08:59:49.916Z,24.49
2023-03-18T09:02:20.814Z,24.33
2023-03-18T09:04:51.397Z,23.74
2023-03-18T09:07:24.592Z,23.42
2023-03-18T09:09:55.541Z,23.79
2023-03-18T09:12:25.961Z,23.88
2023-03-18T09:14:56.346Z,24.25
2023-03-18T09:17:40.340Z,23.66
2023-03-18T09:20:19.232Z,22.67
2023-03-18T09:22:52.551Z,22.34
2023-03-18T09:25:24.681Z,22.97
2023-03-18T09:27:55.319Z,23.23
2023-03-18T09:30:26.545Z,23.49
2023-03-18T09:32:57.284Z,25.35
2023-03-18T09:35:29.229Z,26.52
2023-03-18T09:38:02.399Z,27.46
2023-03-18T09:40:38.273Z,27.50
2023-03-18T09:43:34.545Z,27.26
2023-03-18T09:46:13.017Z,27.11
2023-03-18T09:49:22.206Z,28.03
2023-03-18T09:52:03.657Z,28.11
2023-03-18T09:54:42.660Z,27.81
2023-03-18T09:57:23.013Z,28.79
2023-03-18T10:00:00.516Z,29.87
2023-03-18T10:02:36.894Z,30.00
2023-03-18T10:05:15.334Z,29.91
2023-03-18T10:07:48.595Z,29.89
2023-03-18T10:10:28.868Z,29.65
2023-03-18T10:13:10.337Z,29.38
2023-03-18T10:15:45.754Z,29.63
2023-03-18T10:18:23.924Z,30.13
2023-03-18T10:21:15.754Z,30.81
2023-03-18T10:23:58.350Z,31.04
2023-03-18T10:26:38.452Z,31.85
2023-03-18T10:29:24.699Z,31.72
2023-03-18T10:32:09.566Z,32.63
2023-03-18T10:35:00.765Z,31.99
2023-03-18T10:37:45.350Z,31.65
2023-03-18T10:40:20.188Z,31.55
2023-03-18T10:42:56.578Z,30.42
2023-03-18T10:45:31.366Z,29.82
2023-03-18T10:48:10.943Z,30.31
2023-03-18T10:50:45.926Z,29.79
2023-03-18T10:53:23.322Z,29.89
2023-03-18T10:56:02.079Z,29.15
2023-03-18T10:58:35.985Z,28.93
2023-03-18T11:01:07.882Z,28.85
2023-03-18T11:03:44.562Z,28.66
2023-03-18T11:06:28.896Z,29.12
2023-03-18T11:09:08.820Z,28.86
2023-03-18T11:11:43.346Z,28.65
2023-03-18T11:14:23.050Z,28.43
2023-03-18T11:17:01.133Z,28.13
2023-03-18T11:19:35.539Z,27.46
2023-03-18T11:22:26.205Z,27.34
2023-03-18T11:25:17.196Z,27.90
2023-03-18T11:27:51.360Z,27.75
2023-03-18T11:30:34.300Z,28.06
2023-03-18T11:33:17.551Z,28.88
2023-03-18T11:35:55.150Z,29.07
2023-03-18T11:38:32.256Z,28.80
2023-03-18T11:41:11.200Z,28.86
2023-03-18T11:43:42.033Z,29.68
2023-03-18T11:46:15.728Z,29.42
2023-03-18T11:48:49.034Z,30.25
2023-03-18T11:51:44.722Z,30.95
2023-03-18T11:54:39.507Z,31.61
2023-03-18T11:57:19.641Z,32.82
2023-03-18T12:00:05.494Z,33.39
2023-03-18T12:03:20.034Z,34.36
2023-03-18T12:06:05.510Z,35.03
2023-03-18T12:08:50.089Z,35.50
2023-03-18T12:11:35.475Z,36.42
2023-03-18T12:14:15.768Z,36.42
2023-03-18T12:17:03.890Z,36.66
2023-03-18T12:20:08.708Z,37.22
2023-03-18T12:23:05.433Z,37.04
2023-03-18T12:25:59.687Z,37.18
2023-03-18T12:29:03.137Z,38.00
2023-03-18T12:31:59.602Z,38.26
2023-03-18T12:35:07.934Z,38.41
2023-03-18T12:37:53.791Z,39.60
2023-03-18T12:40:42.883Z,39.23
2023-03-18T12:43:37.566Z,37.66
2023-03-18T12:46:24.774Z,37.67
2023-03-18T12:49:04.593Z,36.37
2023-03-18T12:51:46.321Z,36.04
2023-03-18T12:54:24.298Z,36.35
2023-03-18T12:57:01.879Z,35.93
2023-03-18T12:59:39.443Z,35.25
2023-03-18T13:02:31.679Z,34.45
2023-03-18T13:05:06.548Z,34.32
2023-03-18T13:07:47.158Z,33.33
2023-03-18T13:10:23.561Z,33.31
2023-03-18T13:12:57.633Z,33.02
2023-03-18T13:15:35.811Z,31.77
2023-03-18T13:18:16.496Z,30.12
2023-03-18T13:20:48.301Z,27.32
2023-03-18T13:23:44.846Z,24.11
2023-03-18T13:26:26.700Z,22.91
2023-03-18T13:29:20.253Z,21.45
2023-03-18T13:32:00.165Z,20.04
2023-03-18T13:35:17.797Z,19.36
2023-03-18T13:38:17.444Z,19.23
2023-03-18T13:41:32.622Z,18.13
2023-03-18T13:44:07.850Z,17.92
2023-03-18T13:46:38.686Z,17.97
2023-03-18T13:49:21.929Z,18.55
2023-03-18T13:52:01.215Z,18.00
2023-03-18T13:54:38.801Z,18.55
2023-03-18T13:57:49.706Z,18.31
2023-03-18T14:00:38.499Z,18.13
2023-03-18T14:03:23.339Z,17.84
2023-03-18T14:05:56.279Z,18.06
2023-03-18T14:08:54.670Z,17.83
2023-03-18T14:11:50.941Z,17.83
2023-03-18T14:15:08.375Z,17.62
2023-03-18T14:17:49.283Z,17.64
2023-03-18T14:20:30.225Z,17.16
2023-03-18T14:23:39.108Z,17.25
2023-03-18T14:26:20.523Z,16.86
2023-03-18T14:28:55.506Z,17.18
2023-03-18T14:31:39.337Z,17.14
2023-03-18T14:34:36.064Z,17.42
2023-03-18T14:37:32.750Z,16.96
2023-03-18T14:40:11.677Z,17.31
2023-03-18T14:42:56.777Z,18.58
2023-03-18T14:45:31.885Z,19.51
2023-03-18T14:48:10.291Z,19.19
2023-03-18T14:50:45.732Z,19.99
2023-03-18T14:53:23.688Z,19.69
2023-03-18T14:55:57.329Z,19.97
2023-03-18T14:58:29.428Z,21.05
2023-03-18T15:01:07.291Z,22.56
2023-03-18T15:03:45.378Z,22.98
2023-03-18T15:06:23.258Z,22.01
2023-03-18T15:08:56.308Z,21.53
2023-03-18T15:11:30.321Z,21.18
2023-03-18T15:14:00.835Z,20.38
2023-03-18T15:16:36.637Z,20.25
2023-03-18T15:19:09.787Z,20.50
2023-03-18T15:21:40.715Z,20.76
2023-03-18T15:24:12.395Z,21.28
2023-03-18T15:26:44.533Z,21.41
2023-03-18T15:29:28.997Z,23.32
2023-03-18T15:32:12.049Z,24.99
2023-03-18T15:34:47.292Z,25.87
2023-03-18T15:37:41.244Z,27.04
2023-03-18T15:40:28.373Z,28.17
2023-03-18T15:43:01.597Z,28.44
2023-03-18T15:45:34.387Z,28.34
2023-03-18T15:48:10.982Z,29.73
2023-03-18T15:50:56.982Z,30.72
2023-03-18T15:53:30.368Z,31.16
2023-03-18T15:56:13.559Z,32.37
2023-03-18T15:58:44.881Z,32.91
2023-03-18T16:01:20.891Z,33.28
2023-03-18T16:03:52.807Z,34.22
2023-03-18T16:06:26.917Z,34.76
2023-03-18T16:08:57.501Z,35.30
2023-03-18T16:11:28.146Z,35.69
2023-03-18T16:13:59.801Z,36.44
2023-03-18T16:16:33.687Z,37.06
2023-03-18T16:19:07.040Z,37.78
2023-03-18T16:21:40.035Z,37.87
2023-03-18T16:24:10.759Z,38.85
2023-03-18T16:26:40.820Z,39.00
2023-03-18T16:29:18.839Z,39.20
2023-03-18T16:31:49.462Z,38.91
2023-03-18T16:34:22.746Z,38.97
2023-03-18T16:36:56.215Z,38.62
2023-03-18T16:39:34.093Z,38.73
2023-03-18T16:42:05.315Z,38.24
2023-03-18T16:44:38.165Z,37.83
2023-03-18T16:47:09.491Z,37.81
2023-03-18T16:49:40.417Z,38.10
2023-03-18T16:52:16.046Z,38.35
2023-03-18T16:54:47.187Z,38.45
2023-03-18T16:57:22.047Z,39.01
2023-03-18T16:59:56.739Z,38.82
2023-03-18T17:02:35.856Z,38.89
2023-03-18T17:05:06.762Z,38.62
2023-03-18T17:07:39.783Z,38.88
2023-03-18T17:10:11.936Z,39.12
2023-03-18T17:12:44.651Z,40.01
2023-03-18T17:15:20.570Z,40.40
2023-03-18T17:17:53.159Z,40.82
2023-03-18T17:20:25.445Z,41.17
2023-03-18T17:22:59.262Z,41.17
2023-03-18T17:25:32.207Z,41.39
2023-03-18T17:28:08.567Z,41.20
2023-03-18T17:30:41.858Z,40.71
2023-03-18T17:33:25.987Z,40.67
2023-03-18T17:35:57.352Z,40.62
2023-03-18T17:38:30.794Z,40.83
2023-03-18T17:41:02.613Z,40.50
2023-03-18T17:43:36.043Z,40.64
2023-03-18T17:46:08.544Z,40.66
2023-03-18T17:48:41.178Z,41.03
2023-03-18T17:51:19.164Z,41.42
2023-03-18T17:53:56.844Z,41.68
2023-03-18T17:56:28.032Z,41.70
2023-03-18T17:58:58.389Z,41.92
2023-03-18T18:01:32.423Z,41.78
2023-03-18T18:04:04.306Z,41.96
2023-03-18T18:06:35.311Z,42.38
2023-03-18T18:09:08.282Z,42.80
2023-03-18T18:11:44.270Z,43.03
2023-03-18T18:14:22.740Z,43.29
2023-03-18T18:16:54.333Z,43.31
2023-03-18T18:19:25.205Z,43.52
2023-03-18T18:21:56.122Z,43.42
2023-03-18T18:24:33.459Z,43.33
2023-03-18T18:27:07.333Z,43.50
2023-03-18T18:29:38.056Z,43.42
2023-03-18T18:32:12.132Z,43.52
2023-03-18T18:34:42.510Z,43.48
2023-03-18T18:37:12.993Z,43.84
2023-03-18T18:39:45.981Z,43.84
2023-03-18T18:42:16.690Z,43.80
2023-03-18T18:44:47.118Z,44.05
2023-03-18T18:47:22.086Z,44.15
2023-03-18T18:49:52.893Z,44.24
2023-03-18T18:52:23.497Z,44.17
2023-03-18T18:54:56.834Z,44.25
2023-03-18T18:57:29.733Z,44.53
2023-03-18T19:00:00.393Z,44.59
2023-03-18T19:02:39.939Z,44.72
2023-03-18T19:05:11.871Z,45.00
2023-03-18T19:07:46.604Z,44.97
2023-03-18T19:10:21.569Z,45.09
2023-03-18T19:12:51.905Z,44.88
2023-03-18T19:15:22.574Z,44.93
2023-03-18T19:17:53.193Z,45.36
2023-03-18T19:20:33.518Z,45.12
2023-03-18T19:23:04.532Z,45.15
2023-03-18T19:25:37.487Z,45.27
2023-03-18T19:28:08.243Z,45.04
2023-03-18T19:30:38.924Z,44.70
2023-03-18T19:33:18.653Z,44.59
2023-03-18T19:35:49.474Z,44.39
2023-03-18T19:38:24.391Z,44.29
2023-03-18T19:40:57.528Z,44.47
2023-03-18T19:43:27.878Z,44.44
2023-03-18T19:45:58.555Z,44.64
2023-03-18T19:48:30.271Z,44.47
2023-03-18T19:51:01.441Z,44.73
2023-03-18T19:53:32.410Z,44.55
2023-03-18T19:56:08.676Z,44.26
2023-03-18T19:58:39.537Z,44.19
2023-03-18T20:01:10.086Z,44.41
2023-03-18T20:03:40.683Z,44.51
2023-03-18T20:06:11.136Z,44.76
2023-03-18T20:08:41.883Z,44.92
2023-03-18T20:11:21.143Z,44.94
2023-03-18T20:13:51.997Z,45.02
2023-03-18T20:16:22.870Z,44.91
2023-03-18T20:18:54.847Z,44.82
2023-03-18T20:21:32.367Z,44.56
2023-03-18T20:24:08.410Z,44.49
2023-03-18T20:26:42.217Z,44.59
2023-03-18T20:29:20.989Z,44.45
2023-03-18T20:31:51.694Z,44.69
2023-03-18T20:34:23.152Z,44.54
2023-03-18T20:36:53.850Z,44.82
2023-03-18T20:39:26.557Z,44.67
2023-03-18T20:41:59.876Z,44.58
2023-03-18T20:44:30.773Z,44.54
2023-03-18T20:47:01.244Z,44.53
2023-03-18T20:49:31.753Z,44.36
2023-03-18T20:52:02.677Z,44.24
2023-03-18T20:54:35.488Z,44.74
2023-03-18T20:57:09.299Z,44.50
2023-03-18T20:59:39.859Z,44.38
2023-03-18T21:02:31.226Z,44.30
2023-03-18T21:05:04.365Z,44.30
2023-03-18T21:07:34.803Z,44.38
2023-03-18T21:10:05.250Z,44.23
2023-03-18T21:12:39.345Z,44.31
2023-03-18T21:15:18.180Z,44.37
2023-03-18T21:17:49.474Z,44.86
2023-03-18T21:20:23.625Z,45.02
2023-03-18T21:22:57.368Z,45.21
2023-03-18T21:25:31.157Z,45.13
2023-03-18T21:28:05.512Z,45.31
2023-03-18T21:30:36.235Z,45.67
2023-03-18T21:33:22.178Z,45.98
2023-03-18T21:35:56.896Z,45.33
2023-03-18T21:38:28.500Z,45.33
2023-03-18T21:40:59.203Z,45.71
2023-03-18T21:43:37.361Z,45.96
2023-03-18T21:46:12.976Z,46.07
2023-03-18T21:48:46.638Z,47.24
2023-03-18T21:51:38.226Z,46.52
2023-03-18T21:54:09.747Z,46.64
2023-03-18T21:56:40.394Z,46.71
2023-03-18T21:59:13.580Z,46.63
2023-03-18T22:01:44.124Z,45.88
2023-03-18T22:04:14.949Z,46.43
2023-03-18T22:06:48.230Z,45.90
2023-03-18T22:09:18.697Z,46.29
2023-03-18T22:11:49.517Z,45.69
2023-03-18T22:14:22.768Z,45.54
2023-03-18T22:16:53.244Z,45.51
2023-03-18T22:19:23.689Z,45.69
2023-03-18T22:21:54.240Z,45.57
2023-03-18T22:24:27.613Z,45.74
2023-03-18T22:26:57.966Z,45.92
2023-03-18T22:29:31.334Z,45.89
2023-03-18T22:32:02.363Z,46.36
2023-03-18T22:34:32.478Z,46.72
2023-03-18T22:37:02.888Z,45.78
2023-03-18T22:39:33.222Z,45.74
2023-03-18T22:42:03.638Z,45.68
2023-03-18T22:44:36.770Z,46.09
2023-03-18T22:47:07.752Z,46.70
2023-03-18T22:49:37.825Z,46.85
2023-03-18T22:52:08.911Z,46.31
2023-03-18T22:54:39.223Z,45.86
2023-03-18T22:57:09.650Z,45.94
2023-03-18T22:59:42.733Z,46.34
2023-03-18T23:02:20.959Z,46.84
2023-03-18T23:04:52.319Z,46.78
2023-03-18T23:07:33.103Z,46.92
2023-03-18T23:10:06.072Z,47.10
2023-03-18T23:12:36.560Z,47.51
2023-03-18T23:15:11.954Z,47.21
2023-03-18T23:17:42.570Z,47.24
2023-03-18T23:20:15.062Z,46.71
2023-03-18T23:22:46.394Z,46.47
2023-03-18T23:25:20.048Z,46.63
2023-03-18T23:27:50.576Z,46.29
2023-03-18T23:30:23.708Z,46.29
2023-03-18T23:32:54.272Z,46.20
2023-03-18T23:35:27.768Z,46.24
2023-03-18T23:37:58.195Z,46.78
2023-03-18T23:40:28.938Z,47.04
2023-03-18T23:42:59.614Z,47.14
2023-03-18T23:45:33.418Z,47.17
2023-03-18T23:48:04.243Z,47.26
2023-03-18T23:50:35.050Z,47.40
2023-03-18T23:53:05.852Z,47.53
2023-03-18T23:55:36.467Z,47.96
2023-03-18T23:58:07.155Z,47.71
